Nouadhibou, Mauritania
Current Conditions -  °F | °C
As of 4:00 AM on Wednesday 28 Jan 2015 (Local Time) from GQPP Reporting Station
Clear Clear  
Wind Chill: 57°   Ceiling: Unl
Heat Index: 57°   Visibility: 5mi
Dew Point: 39°   Wind: 14mph
Humidity: 51%   Direction: 350°N
Pressure: 30.12"   Gusts: NA
Location:  20.96°N, 17.04°W
Report Text: GQPP 280400Z 35012KT 8000 NSC 14/04 Q1020 NOSIG
Loading
Personal Weather Stations






























Interactive Weather Map New forecast layout! Learn more

10-Day Weather Forecast

Advertisements
Track Severe Weather on mobile